Time;durP1;ratioP1;P1;durP2;ratioP2;P2;SDS_P1;SDS_P2;PMS_P1;PMS_P2;Temp;Humidity;BMP_temperature;BMP_pressure;BME280_temperature;BME280_humidity;BME280_pressure;Samples;Min_cycle;Max_cycle;Signal;HPM_P1;HPM_P2
2022/12/10 08:03:59;;;;;;;;;7.75;6.75;;;;;17.22;44.33;100758.84;5069647;27;45726;-70
2022/12/10 08:06:26;;;;;;;;;4.75;4.00;;;;;17.55;44.50;100761.53;5057697;28;45488;-71
2022/12/10 08:08:52;;;;;;;;;6.25;6.25;;;;;18.21;44.71;100781.13;5059849;27;46264;-72
2022/12/10 08:11:19;;;;;;;;;5.00;5.00;;;;;18.89;44.88;100785.97;5054273;28;45534;-71
2022/12/10 08:13:44;;;;;;;;;7.00;7.00;;;;;19.35;44.46;100758.63;5059461;27;48074;-70
2022/12/10 08:16:14;;;;;;;;;7.75;6.00;;;;;20.17;44.76;100797.88;5053060;27;45689;-70
2022/12/10 08:18:40;;;;;;;;;5.00;3.50;;;;;20.77;44.48;100811.03;5053693;27;45350;-72
2022/12/10 08:21:11;;;;;;;;;8.75;6.00;;;;;21.27;43.55;100811.69;5054832;27;45685;-74
2022/12/10 08:23:37;;;;;;;;;6.25;6.00;;;;;21.75;43.88;100808.81;5052172;28;46238;-73
2022/12/10 08:26:08;;;;;;;;;4.00;4.00;;;;;22.19;43.22;100818.78;5060751;27;45486;-74
2022/12/10 08:28:34;;;;;;;;;6.50;6.50;;;;;22.57;43.12;100820.41;5055944;27;45691;-70
2022/12/10 08:31:00;;;;;;;;;8.67;7.33;;;;;22.87;42.93;100808.22;5057000;28;47542;-70
2022/12/10 08:33:26;;;;;;;;;6.25;6.00;;;;;23.22;42.42;100818.16;5053605;28;45474;-70
2022/12/10 08:35:51;;;;;;;;;6.67;6.00;;;;;23.50;42.42;100823.34;5056119;28;45725;-71
2022/12/10 08:38:17;;;;;;;;;8.00;5.00;;;;;23.70;42.05;100815.72;5051897;28;45599;-71
2022/12/10 08:40:43;;;;;;;;;6.00;6.00;;;;;23.96;42.25;100822.88;5044866;27;45475;-71
2022/12/10 08:43:08;;;;;;;;;6.67;6.67;;;;;24.16;41.58;100826.09;5045925;28;47440;-73
2022/12/10 08:45:34;;;;;;;;;8.00;6.67;;;;;24.31;41.30;100828.09;5048641;27;45554;-71
2022/12/10 08:48:01;;;;;;;;;3.33;3.33;;;;;24.42;41.21;100832.34;5050257;28;45570;-71
2022/12/10 08:50:28;;;;;;;;;8.33;6.67;;;;;24.58;41.07;100835.03;5048753;28;45989;-71
2022/12/10 08:52:53;;;;;;;;;6.00;6.00;;;;;24.70;40.86;100834.66;5048848;28;46327;-72
2022/12/10 08:55:18;;;;;;;;;7.00;7.00;;;;;24.78;40.67;100842.78;5048491;28;45542;-71
2022/12/10 08:57:44;;;;;;;;;6.33;5.00;;;;;24.82;40.83;100835.13;5050261;27;45530;-72
2022/12/10 09:00:10;;;;;;;;;5.67;5.67;;;;;24.91;40.81;100842.25;5049354;27;45637;-72
2022/12/10 09:02:35;;;;;;;;;6.00;6.00;;;;;24.97;40.14;100846.97;5056018;27;45579;-71
2022/12/10 09:05:01;;;;;;;;;5.67;5.00;;;;;25.04;40.47;100848.97;5070718;27;45509;-71
2022/12/10 09:07:26;;;;;;;;;8.67;7.33;;;;;25.09;40.12;100847.44;5077735;27;45563;-72
2022/12/10 09:09:52;;;;;;;;;6.00;6.00;;;;;25.12;39.82;100849.78;5063654;27;45590;-72
2022/12/10 09:12:17;;;;;;;;;5.67;4.33;;;;;25.18;39.97;100852.81;5060555;27;45970;-71
2022/12/10 09:14:42;;;;;;;;;7.33;7.33;;;;;25.18;39.48;100848.22;5055612;27;45974;-73
2022/12/10 09:17:08;;;;;;;;;6.67;6.67;;;;;25.32;39.57;100862.06;5058018;28;45418;-74
2022/12/10 09:19:34;;;;;;;;;6.00;6.00;;;;;25.35;39.35;100861.75;5067329;27;45403;-73
2022/12/10 09:21:59;;;;;;;;;7.00;6.00;;;;;25.37;39.23;100856.97;5077986;27;46482;-74
2022/12/10 09:24:25;;;;;;;;;5.00;5.00;;;;;25.53;39.17;100864.16;5067450;28;45334;-74
2022/12/10 09:26:50;;;;;;;;;9.33;7.67;;;;;25.60;39.18;100864.34;5058001;28;45457;-73
2022/12/10 09:29:15;;;;;;;;;8.00;8.00;;;;;25.61;38.82;100853.28;5058854;28;45378;-74
2022/12/10 09:31:40;;;;;;;;;5.00;5.00;;;;;25.74;38.88;100868.13;5060463;28;45554;-74
2022/12/10 09:34:06;;;;;;;;;7.00;7.00;;;;;25.78;39.27;100867.63;5057618;28;45397;-74
2022/12/10 09:36:31;;;;;;;;;4.33;4.33;;;;;25.85;38.55;100856.88;5062188;28;45595;-74
2022/12/10 09:38:57;;;;;;;;;7.33;7.33;;;;;25.86;38.61;100866.69;5057051;28;45878;-74
2022/12/10 09:41:45;;;;;;;;;6.00;6.00;;;;;25.89;38.47;100874.50;5061178;27;46593;-73
2022/12/10 09:44:17;;;;;;;;;5.00;5.00;;;;;25.88;38.33;100875.50;5055764;28;46632;-73
2022/12/10 09:46:52;;;;;;;;;6.33;6.33;;;;;25.85;37.91;100867.75;5061524;27;45414;-75
2022/12/10 09:49:38;;;;;;;;;6.00;5.33;;;;;25.85;37.96;100867.75;5047180;28;45594;-75
2022/12/10 09:52:09;;;;;;;;;8.00;7.00;;;;;25.85;38.06;100872.31;5057961;28;46526;-75
2022/12/10 09:54:44;;;;;;;;;3.67;3.67;;;;;25.86;38.24;100874.84;5051837;27;47312;-74
2022/12/10 09:57:30;;;;;;;;;6.00;5.00;;;;;25.84;37.86;100873.34;5053490;27;45509;-76
2022/12/10 09:59:58;;;;;;;;;6.33;6.33;;;;;25.85;37.64;100873.19;5055045;28;45608;-78
2022/12/10 10:02:27;;;;;;;;;7.00;6.00;;;;;25.90;37.87;100880.78;5055045;28;46696;-73
2022/12/10 10:05:09;;;;;;;;;7.33;6.67;;;;;25.89;37.70;100879.09;5064683;27;45893;-73
2022/12/10 10:07:41;;;;;;;;;7.67;6.67;;;;;25.88;37.79;100875.50;5053408;28;45475;-74
2022/12/10 10:10:22;;;;;;;;;6.00;6.00;;;;;25.96;37.58;100885.50;5062408;27;45914;-75
2022/12/10 10:12:48;;;;;;;;;10.33;10.33;;;;;25.92;37.64;100870.59;5056839;28;47050;-73
2022/12/10 10:15:18;;;;;;;;;6.00;6.00;;;;;25.96;37.20;100874.63;5062693;27;45510;-73
2022/12/10 10:17:46;;;;;;;;;7.00;6.67;;;;;25.97;37.66;100868.16;5055257;27;45674;-74
2022/12/10 10:20:13;;;;;;;;;11.00;6.33;;;;;25.99;37.69;100868.81;5060406;28;45534;-73
2022/12/10 10:22:39;;;;;;;;;6.00;6.00;;;;;26.02;37.74;100873.91;5040955;28;48561;-72
2022/12/10 10:25:12;;;;;;;;;9.33;6.00;;;;;26.08;37.31;100871.47;5057188;28;45421;-72
2022/12/10 10:27:37;;;;;;;;;7.00;7.00;;;;;26.10;37.54;100863.97;5056731;27;45459;-70
2022/12/10 10:30:04;;;;;;;;;7.33;5.67;;;;;26.16;37.45;100866.78;5054192;27;45487;-74
2022/12/10 10:32:35;;;;;;;;;7.00;6.00;;;;;26.26;37.38;100863.00;5053485;28;47092;-74
2022/12/10 10:35:03;;;;;;;;;6.00;6.00;;;;;26.35;36.92;100866.53;5070733;27;45446;-75
2022/12/10 10:37:40;;;;;;;;;7.00;6.67;;;;;26.35;37.58;100858.34;5066387;28;45408;-75
2022/12/10 10:40:06;;;;;;;;;7.00;7.00;;;;;26.46;37.24;100874.22;5072493;28;45416;-72
2022/12/10 10:42:39;;;;;;;;;8.00;7.00;;;;;26.38;37.19;100869.72;5043945;28;47330;-73
2022/12/10 10:45:26;;;;;;;;;8.67;8.00;;;;;26.30;37.13;100876.06;5070301;27;45494;-72
2022/12/10 10:48:04;;;;;;;;;11.00;8.00;;;;;26.20;36.89;100880.03;4992375;28;45291;-72
2022/12/10 10:50:30;;;;;;;;;10.67;10.67;;;;;26.12;36.53;100875.53;4991632;28;45929;-73
2022/12/10 10:52:55;;;;;;;;;10.67;9.33;;;;;26.07;36.42;100875.22;4994040;28;46213;-74
2022/12/10 10:55:35;;;;;;;;;9.67;9.33;;;;;26.00;36.90;100872.38;4992237;28;45539;-73
2022/12/10 10:58:01;;;;;;;;;10.00;10.00;;;;;25.95;36.72;100870.19;4992635;28;45563;-74
2022/12/10 11:00:26;;;;;;;;;8.00;8.00;;;;;25.91;36.35;100885.19;4990160;28;45894;-74
2022/12/10 11:02:52;;;;;;;;;9.00;8.67;;;;;25.88;36.43;100883.66;4990444;28;45840;-75
2022/12/10 11:05:33;;;;;;;;;7.33;6.67;;;;;25.82;36.80;100878.13;4975385;28;45845;-80
2022/12/10 11:08:12;;;;;;;;;12.67;8.67;;;;;25.86;36.22;100882.16;4994402;28;45664;-74
2022/12/10 11:10:49;;;;;;;;;16.33;9.33;;;;;25.82;36.13;100883.56;4987458;28;45616;-73
2022/12/10 11:13:19;;;;;;;;;10.33;8.67;;;;;25.77;36.41;100893.13;4988404;28;45670;-73
2022/12/10 11:15:45;;;;;;;;;9.33;9.00;;;;;25.73;36.42;100871.88;4991668;28;45533;-73
2022/12/10 11:18:28;;;;;;;;;11.33;11.00;;;;;25.73;36.32;100886.34;4991272;28;45870;-74
2022/12/10 11:21:00;;;;;;;;;8.00;8.00;;;;;25.71;36.16;100877.50;4995138;28;45555;-74
2022/12/10 11:23:32;;;;;;;;;7.00;6.00;;;;;25.67;36.44;100887.06;4991142;28;45533;-77
2022/12/10 11:26:16;;;;;;;;;10.00;10.00;;;;;25.61;36.11;100883.19;5050920;27;45490;-74
2022/12/10 11:29:06;;;;;;;;;7.33;7.00;;;;;25.56;35.86;100877.44;5073129;27;45892;-74
2022/12/10 11:31:31;;;;;;;;;10.33;8.67;;;;;25.53;36.25;100878.63;5076134;27;45314;-74
2022/12/10 11:34:15;;;;;;;;;8.67;8.67;;;;;25.48;36.45;100866.59;5075796;27;45466;-74
2022/12/10 11:37:08;;;;;;;;;12.67;9.00;;;;;25.50;36.18;100870.81;5071367;27;45745;-73
2022/12/10 11:39:52;;;;;;;;;7.00;7.00;;;;;25.50;36.18;100869.97;5062068;28;45428;-71
2022/12/10 11:43:08;;;;;;;;;11.00;11.00;;;;;25.49;35.88;100874.56;5074415;27;45329;-71
2022/12/10 11:45:36;;;;;;;;;6.00;6.00;;;;;25.48;36.03;100872.88;5007019;28;46211;-71
2022/12/10 11:48:10;;;;;;;;;8.00;8.00;;;;;25.47;36.35;100864.91;4976228;28;45371;-72
2022/12/10 11:50:44;;;;;;;;;9.00;9.00;;;;;25.49;36.02;100865.56;5020706;28;45781;-72
2022/12/10 11:53:34;;;;;;;;;8.00;8.00;;;;;25.51;36.05;100874.38;5009636;28;47234;-71
2022/12/10 11:56:15;;;;;;;;;10.67;6.67;;;;;25.52;36.22;100857.06;4993862;28;46374;-71
2022/12/10 11:59:01;;;;;;;;;7.67;7.33;;;;;25.47;35.85;100860.28;5012438;28;45640;-71
2022/12/10 12:01:33;;;;;;;;;8.00;8.00;;;;;25.55;36.17;100862.16;5008545;28;45558;-71
2022/12/10 12:04:20;;;;;;;;;7.00;7.00;;;;;25.56;35.85;100863.84;5005684;28;45503;-71
2022/12/10 12:06:54;;;;;;;;;8.67;7.67;;;;;25.58;35.85;100861.78;5010727;28;46381;-71
2022/12/10 12:09:31;;;;;;;;;11.00;8.00;;;;;25.58;35.97;100861.78;5011768;28;45856;-71
2022/12/10 12:12:17;;;;;;;;;7.00;7.00;;;;;25.60;35.77;100873.34;5009483;28;46008;-71
2022/12/10 12:15:01;;;;;;;;;6.67;6.00;;;;;25.60;35.71;100877.91;5006874;28;45435;-71
2022/12/10 12:17:43;;;;;;;;;6.00;5.00;;;;;25.65;35.90;100865.50;5006854;28;45504;-71
2022/12/10 12:20:25;;;;;;;;;8.00;7.00;;;;;25.68;35.82;100861.56;5007472;28;45742;-71
2022/12/10 12:22:59;;;;;;;;;7.67;6.00;;;;;25.72;35.66;100862.06;5056852;27;45674;-71
2022/12/10 12:25:34;;;;;;;;;6.00;6.00;;;;;25.78;35.17;100870.34;5054174;27;45725;-71
2022/12/10 12:28:10;;;;;;;;;8.33;7.33;;;;;25.78;35.77;100867.63;5057588;27;46234;-71
2022/12/10 12:30:38;;;;;;;;;4.00;4.00;;;;;25.84;35.43;100876.94;5057579;28;45464;-70
2022/12/10 12:33:18;;;;;;;;;7.00;7.00;;;;;25.85;35.37;100873.19;5060468;27;45564;-69
2022/12/10 12:35:55;;;;;;;;;8.67;6.00;;;;;25.83;35.51;100869.78;5066799;27;45513;-70
2022/12/10 12:38:23;;;;;;;;;8.33;6.67;;;;;25.87;35.24;100875.72;5060730;27;45680;-70
2022/12/10 12:40:56;;;;;;;;;8.67;7.67;;;;;25.81;35.25;100869.13;5056870;28;45494;-72
2022/12/10 12:43:32;;;;;;;;;7.00;5.33;;;;;25.81;35.22;100870.97;5055248;27;45874;-70
2022/12/10 12:45:57;;;;;;;;;6.00;6.00;;;;;25.79;35.47;100865.75;5059832;28;45505;-71
2022/12/10 12:48:40;;;;;;;;;7.67;7.33;;;;;25.78;35.35;100866.75;5055782;28;49147;-70
2022/12/10 12:51:12;;;;;;;;;7.67;5.33;;;;;25.75;35.33;100867.97;5062688;28;45542;-70
2022/12/10 12:53:38;;;;;;;;;4.67;4.67;;;;;25.71;35.65;100861.19;5076831;27;45509;-69
2022/12/10 12:56:29;;;;;;;;;6.00;6.00;;;;;25.71;35.36;100863.09;5065997;27;46080;-74
2022/12/10 12:59:29;;;;;;;;;14.67;10.33;;;;;25.67;35.29;100869.91;5073693;27;46125;-72
2022/12/10 13:02:10;;;;;;;;;11.00;9.33;;;;;25.59;35.23;100868.09;5072375;28;45577;-70
2022/12/10 13:04:36;;;;;;;;;11.00;6.67;;;;;25.58;35.44;100874.56;5064846;28;45474;-70
2022/12/10 13:07:13;;;;;;;;;4.00;1.00;;;;;25.56;35.54;100871.16;5076433;28;45853;-70
2022/12/10 13:09:48;;;;;;;;;7.67;6.33;;;;;25.55;35.50;100872.16;5072585;28;45556;-70
2022/12/10 13:12:32;;;;;;;;;7.33;7.00;;;;;25.53;35.37;100875.91;5061870;28;45566;-70
2022/12/10 13:15:03;;;;;;;;;6.00;6.00;;;;;25.51;35.42;100877.94;5059749;28;45535;-70
2022/12/10 13:17:36;;;;;;;;;5.33;4.67;;;;;25.51;35.54;100858.09;5075386;28;45467;-70
2022/12/10 13:20:28;;;;;;;;;7.67;6.33;;;;;25.53;35.46;100875.03;5074688;28;46838;-70
2022/12/10 13:22:56;;;;;;;;;5.33;5.33;;;;;25.52;35.62;100867.91;5056597;28;45414;-70
2022/12/10 13:25:39;;;;;;;;;7.67;7.00;;;;;25.57;35.17;100868.25;5057779;28;45477;-70
2022/12/10 13:28:21;;;;;;;;;5.67;5.67;;;;;25.61;35.21;100879.59;5067473;28;45468;-70
2022/12/10 13:31:15;;;;;;;;;7.67;5.67;;;;;25.62;35.19;100879.44;5076715;28;45395;-70
2022/12/10 13:33:51;;;;;;;;;5.00;5.00;;;;;25.62;35.23;100879.44;5075686;28;45733;-70
2022/12/10 13:36:48;;;;;;;;;5.67;5.67;;;;;25.58;34.85;100878.09;5064952;28;45440;-70
2022/12/10 13:39:26;;;;;;;;;9.67;5.67;;;;;25.60;35.02;100884.22;5060669;28;45553;-70
2022/12/10 13:44:59;;;;;;;;;5.00;5.00;;;;;25.58;35.02;100875.38;5076982;28;45690;-70
2022/12/10 13:47:34;;;;;;;;;9.33;6.33;;;;;25.58;35.10;100874.56;5056722;28;45794;-70
2022/12/10 13:50:05;;;;;;;;;6.67;4.00;;;;;25.51;34.95;100877.94;5057123;28;45255;-70
2022/12/10 13:53:02;;;;;;;;;4.00;4.00;;;;;25.54;34.71;100884.88;5055254;28;46741;-70
2022/12/10 13:55:54;;;;;;;;;5.00;5.00;;;;;25.52;34.86;100881.50;4940584;28;45683;-70
2022/12/10 13:58:34;;;;;;;;;5.00;5.00;;;;;25.46;34.71;100884.94;4955426;28;45500;-70
2022/12/10 14:01:18;;;;;;;;;8.33;7.00;;;;;25.41;34.79;100881.91;4983921;28;45943;-70
2022/12/10 14:04:14;;;;;;;;;6.33;6.00;;;;;25.38;34.76;100880.41;4977272;28;48029;-70
2022/12/10 14:06:42;;;;;;;;;7.33;6.00;;;;;25.37;34.60;100881.41;4954711;28;46505;-70
2022/12/10 14:09:26;;;;;;;;;5.67;5.67;;;;;25.35;35.00;100884.31;4963584;28;45432;-70
2022/12/10 14:12:15;;;;;;;;;6.00;5.00;;;;;25.34;34.73;100882.63;4982271;28;45941;-69
2022/12/10 14:14:45;;;;;;;;;8.00;7.00;;;;;25.32;34.85;100891.97;4979622;28;45419;-68
2022/12/10 14:17:33;;;;;;;;;8.00;6.00;;;;;25.27;34.93;100876.22;4965187;28;45538;-70
2022/12/10 14:20:01;;;;;;;;;7.67;7.00;;;;;25.22;34.72;100886.75;4974615;28;45533;-70
2022/12/10 14:22:42;;;;;;;;;7.00;6.67;;;;;25.19;34.51;100884.38;4971994;28;45391;-70
2022/12/10 14:25:15;;;;;;;;;8.00;6.00;;;;;25.18;34.83;100883.53;4970956;28;45582;-70
2022/12/10 14:27:41;;;;;;;;;7.33;6.33;;;;;25.20;34.65;100892.38;4957449;28;46145;-70
2022/12/10 14:30:22;;;;;;;;;5.67;5.00;;;;;25.16;34.66;100891.03;4965465;28;45498;-70
2022/12/10 14:32:49;;;;;;;;;6.00;6.00;;;;;25.18;34.65;100897.09;5026790;28;45517;-70
2022/12/10 14:35:19;;;;;;;;;8.00;6.00;;;;;25.19;34.90;100911.53;5040869;28;45461;-70
2022/12/10 14:37:46;;;;;;;;;6.67;6.33;;;;;25.19;34.67;100917.84;5051643;28;45572;-70
2022/12/10 14:40:38;;;;;;;;;5.67;5.00;;;;;25.17;34.25;100909.00;5037970;28;45496;-70
2022/12/10 14:43:08;;;;;;;;;6.00;6.00;;;;;25.18;34.45;100915.28;5035594;28;45667;-72
2022/12/10 14:45:53;;;;;;;;;5.00;5.00;;;;;25.18;34.60;100926.97;5048054;28;45511;-71
2022/12/10 14:48:19;;;;;;;;;5.67;5.33;;;;;25.17;34.77;100919.88;5044937;28;45689;-72
2022/12/10 14:50:45;;;;;;;;;7.00;7.00;;;;;25.16;34.58;100928.19;5054209;28;45406;-72
2022/12/10 14:53:26;;;;;;;;;9.67;5.67;;;;;25.20;34.30;100933.09;5052639;28;45502;-72
2022/12/10 14:56:05;;;;;;;;;6.00;5.33;;;;;25.21;34.57;100929.38;5046784;28;45456;-72
2022/12/10 14:58:50;;;;;;;;;5.00;5.00;;;;;25.19;34.40;100927.84;5054362;28;45438;-72
2022/12/10 15:01:25;;;;;;;;;6.67;6.67;;;;;25.21;34.27;100931.22;5044838;28;45329;-72
2022/12/10 15:03:52;;;;;;;;;5.33;5.33;;;;;25.17;34.50;100927.19;5069536;27;45716;-73
2022/12/10 15:06:18;;;;;;;;;4.00;4.00;;;;;25.20;34.42;100921.38;5053214;28;46206;-72
2022/12/10 15:08:46;;;;;;;;;5.33;5.33;;;;;25.20;34.45;100926.81;5071958;27;45642;-73
2022/12/10 15:11:17;;;;;;;;;6.00;6.00;;;;;25.19;34.63;100925.13;5082248;27;45543;-73
2022/12/10 15:13:47;;;;;;;;;4.67;4.67;;;;;25.21;34.82;100928.50;5073582;28;45417;-73
2022/12/10 15:16:19;;;;;;;;;7.67;5.00;;;;;25.18;34.58;100923.44;5068325;28;45956;-73
2022/12/10 15:18:45;;;;;;;;;5.67;5.33;;;;;25.18;34.59;100935.13;5044748;28;45596;-73
2022/12/10 15:21:22;;;;;;;;;6.00;6.00;;;;;25.17;34.50;100938.06;5063444;28;45570;-73
2022/12/10 15:23:48;;;;;;;;;4.67;4.67;;;;;25.12;34.38;100938.56;5064476;28;45686;-73
2022/12/10 15:26:25;;;;;;;;;6.33;4.67;;;;;25.06;34.30;100940.09;5060342;28;46707;-73
2022/12/10 15:28:52;;;;;;;;;6.67;6.00;;;;;25.00;34.26;100933.50;5071074;28;45267;-74
2022/12/10 15:31:29;;;;;;;;;6.00;6.00;;;;;24.99;34.23;100944.53;5072992;28;45756;-73
2022/12/10 15:33:58;;;;;;;;;5.33;5.00;;;;;24.96;34.58;100947.59;5074637;28;45438;-73
2022/12/10 15:36:42;;;;;;;;;7.00;6.67;;;;;24.94;34.64;100938.78;5071378;28;45463;-73
2022/12/10 15:39:11;;;;;;;;;5.00;5.00;;;;;24.91;34.42;100950.84;5061554;28;45510;-73
2022/12/10 15:41:47;;;;;;;;;7.00;5.33;;;;;24.89;34.33;100930.31;5074159;28;45470;-73
2022/12/10 15:44:45;;;;;;;;;5.67;5.67;;;;;24.86;34.47;100939.66;5067832;28;45492;-74
2022/12/10 15:47:22;;;;;;;;;5.33;5.33;;;;;24.80;34.42;100934.91;5050393;28;46589;-74
2022/12/10 15:49:49;;;;;;;;;5.00;5.00;;;;;24.79;34.66;100944.88;5070521;28;45460;-73
2022/12/10 15:52:26;;;;;;;;;6.67;6.67;;;;;24.78;34.33;100929.63;5066483;28;45436;-73
2022/12/10 15:54:54;;;;;;;;;6.33;6.00;;;;;24.80;34.37;100948.47;5057517;28;45571;-73
2022/12/10 15:57:24;;;;;;;;;6.00;5.00;;;;;24.78;34.70;100948.63;5060380;28;45721;-73
2022/12/10 15:59:53;;;;;;;;;6.33;6.33;;;;;24.78;34.38;100954.06;5065510;28;45367;-73
2022/12/10 16:02:43;;;;;;;;;6.67;6.67;;;;;24.80;34.47;100951.19;5061521;28;45458;-73
2022/12/10 16:05:29;;;;;;;;;6.00;5.00;;;;;24.70;34.45;100945.91;5068992;28;45402;-74
2022/12/10 16:07:59;;;;;;;;;5.00;3.67;;;;;24.69;34.55;100946.94;5058738;27;47090;-74
2022/12/10 16:10:27;;;;;;;;;5.33;5.00;;;;;24.63;34.48;100944.91;5066978;28;45464;-73
2022/12/10 16:13:03;;;;;;;;;6.00;5.00;;;;;24.69;34.50;100947.78;5051393;28;45369;-74
2022/12/10 16:15:37;;;;;;;;;6.33;6.33;;;;;24.71;34.51;100959.31;5046446;28;45390;-73
2022/12/10 16:18:03;;;;;;;;;7.00;5.00;;;;;24.68;34.31;100948.81;5074778;28;46016;-73
2022/12/10 16:20:30;;;;;;;;;7.00;7.00;;;;;24.74;34.63;100958.13;5068410;28;45419;-73
2022/12/10 16:22:58;;;;;;;;;6.33;5.67;;;;;24.68;34.37;100951.50;5051567;28;45809;-73
2022/12/10 16:25:26;;;;;;;;;7.00;5.00;;;;;24.69;34.35;100958.63;5075010;28;45399;-73
2022/12/10 16:27:52;;;;;;;;;5.33;5.33;;;;;24.71;34.35;100962.03;5077162;28;47427;-73
2022/12/10 16:30:24;;;;;;;;;6.00;5.00;;;;;24.71;34.39;100958.47;5076392;28;45561;-74
2022/12/10 16:32:50;;;;;;;;;7.67;6.00;;;;;24.64;34.20;100955.59;5066044;28;45569;-73
2022/12/10 16:35:16;;;;;;;;;4.00;4.00;;;;;24.64;34.43;100971.03;5074474;27;45361;-73
2022/12/10 16:37:43;;;;;;;;;7.00;7.00;;;;;24.58;34.64;100968.00;5043391;28;47513;-73
2022/12/10 16:40:10;;;;;;;;;4.67;4.67;;;;;24.61;34.62;100972.22;5061834;28;45375;-73
2022/12/10 16:42:36;;;;;;;;;7.00;5.33;;;;;24.60;34.59;100981.38;5071250;28;45539;-75
2022/12/10 16:45:01;;;;;;;;;4.00;4.00;;;;;24.58;34.51;100977.97;5057596;27;45605;-74
2022/12/10 16:47:26;;;;;;;;;6.67;6.67;;;;;24.56;34.57;100971.91;5072164;27;46499;-75
2022/12/10 16:49:52;;;;;;;;;7.67;7.67;;;;;24.54;34.43;100977.47;5070745;28;45436;-75
2022/12/10 16:52:17;;;;;;;;;7.00;5.00;;;;;24.54;34.45;100973.91;5068842;27;45647;-75
2022/12/10 16:54:42;;;;;;;;;5.00;5.00;;;;;24.52;34.57;100970.53;5077626;28;45580;-75
2022/12/10 16:57:15;;;;;;;;;5.00;5.00;;;;;24.53;34.32;100977.66;5072646;28;46182;-75
2022/12/10 16:59:40;;;;;;;;;4.67;4.67;;;;;24.50;34.62;100975.25;5073531;28;45438;-75
2022/12/10 17:02:13;;;;;;;;;5.33;5.33;;;;;24.50;34.74;100969.84;5075661;28;45405;-75
2022/12/10 17:04:39;;;;;;;;;5.00;5.00;;;;;24.49;34.27;100969.00;5073193;27;45415;-75
2022/12/10 17:07:04;;;;;;;;;6.00;6.00;;;;;24.52;34.31;100978.69;5065169;28;46312;-75
2022/12/10 17:09:29;;;;;;;;;4.50;4.00;;;;;24.49;34.41;100977.16;5073956;27;45495;-75
2022/12/10 17:11:55;;;;;;;;;7.33;5.00;;;;;24.42;34.44;100957.13;5057703;28;45549;-75
2022/12/10 17:14:26;;;;;;;;;4.00;4.00;;;;;24.53;34.27;100972.22;5071515;27;45581;-75
2022/12/10 17:16:53;;;;;;;;;6.33;5.33;;;;;24.52;34.31;100965.94;5049825;28;46346;-75
2022/12/10 17:19:19;;;;;;;;;5.67;5.00;;;;;24.52;34.25;100973.25;5074088;27;45346;-75
2022/12/10 17:21:45;;;;;;;;;7.00;7.00;;;;;24.51;34.15;100975.09;5077932;27;45735;-75
2022/12/10 17:24:11;;;;;;;;;6.33;6.00;;;;;24.46;34.33;100972.06;5068020;28;45451;-75
2022/12/10 17:26:42;;;;;;;;;5.67;5.67;;;;;24.48;34.26;100978.13;5071272;28;45811;-75
2022/12/10 17:29:30;;;;;;;;;6.33;5.33;;;;;24.43;34.35;100973.25;5072715;28;45528;-75
2022/12/10 17:31:55;;;;;;;;;6.00;6.00;;;;;24.44;34.57;100963.25;5066406;28;45361;-75
2022/12/10 17:34:23;;;;;;;;;7.33;5.67;;;;;24.42;34.44;100967.97;5072952;28;45521;-75
2022/12/10 17:36:52;;;;;;;;;8.33;7.00;;;;;24.40;34.49;100954.56;5075074;28;46491;-75
2022/12/10 17:39:21;;;;;;;;;6.33;6.33;;;;;24.34;34.10;100947.13;5063041;27;45298;-75
2022/12/10 17:41:46;;;;;;;;;8.00;6.67;;;;;24.37;34.11;100948.66;5057459;27;45712;-76
2022/12/10 17:44:12;;;;;;;;;8.67;8.67;;;;;24.35;34.24;100946.09;5070171;27;45911;-75
2022/12/10 17:46:38;;;;;;;;;10.00;10.00;;;;;24.30;34.30;100943.03;5072299;27;46153;-75
2022/12/10 17:49:04;;;;;;;;;8.33;8.33;;;;;24.36;34.33;100952.38;5068713;27;45939;-75
2022/12/10 17:51:30;;;;;;;;;7.00;7.00;;;;;24.26;34.31;100936.25;5067900;27;45487;-75
2022/12/10 17:54:06;;;;;;;;;10.00;10.00;;;;;24.25;34.45;100940.84;5066875;27;45455;-76
2022/12/10 17:56:32;;;;;;;;;8.67;8.67;;;;;24.32;34.25;100946.47;5068969;27;46291;-75
2022/12/10 17:58:58;;;;;;;;;9.00;9.00;;;;;24.31;34.12;100944.75;5077671;27;45368;-75
2022/12/10 18:01:26;;;;;;;;;8.33;8.00;;;;;24.31;34.34;100942.03;5071798;27;45470;-75
2022/12/10 18:03:52;;;;;;;;;9.33;9.33;;;;;24.30;34.13;100949.34;5062516;27;45891;-76
2022/12/10 18:06:26;;;;;;;;;10.00;10.00;;;;;24.27;34.12;100940.69;5069884;27;45514;-75
2022/12/10 18:08:52;;;;;;;;;10.00;8.67;;;;;24.07;34.11;100903.00;5068516;27;45866;-75
2022/12/10 18:11:24;;;;;;;;;10.33;10.33;;;;;24.18;34.25;100924.41;5071854;27;45581;-76
2022/12/10 18:13:50;;;;;;;;;8.67;8.67;;;;;24.27;34.43;100944.22;5078815;27;45561;-75
2022/12/10 18:16:20;;;;;;;;;8.67;8.67;;;;;24.25;34.52;100931.84;5066591;27;45459;-75
2022/12/10 18:18:58;;;;;;;;;11.00;9.00;;;;;24.24;34.10;100936.47;5067550;28;45458;-75
2022/12/10 18:21:25;;;;;;;;;11.00;9.67;;;;;24.28;34.10;100942.38;5072916;27;45436;-75
2022/12/10 18:23:51;;;;;;;;;9.67;9.00;;;;;24.04;34.10;100916.91;5082428;27;46447;-74
2022/12/10 18:26:20;;;;;;;;;9.00;9.00;;;;;24.23;33.87;100955.59;5080833;27;45676;-74
2022/12/10 18:29:00;;;;;;;;;10.00;9.00;;;;;24.22;34.17;100954.75;5077056;27;45328;-74
2022/12/10 18:31:32;;;;;;;;;9.00;8.33;;;;;24.26;33.78;100960.66;5062190;27;45913;-74
2022/12/10 18:34:02;;;;;;;;;10.00;8.00;;;;;24.26;34.09;100960.66;5078003;27;45336;-75
2022/12/10 18:36:31;;;;;;;;;11.33;11.33;;;;;24.20;34.18;100948.66;5064512;27;46268;-75
2022/12/10 18:38:59;;;;;;;;;11.33;9.67;;;;;24.23;33.87;100967.28;5074620;27;45598;-75
2022/12/10 18:41:25;;;;;;;;;11.33;11.33;;;;;24.20;33.85;100964.94;5076206;27;45489;-75
2022/12/10 18:43:51;;;;;;;;;14.00;10.00;;;;;24.15;34.00;100962.69;5085853;27;45488;-75
2022/12/10 18:46:25;;;;;;;;;11.33;9.33;;;;;24.18;33.81;100964.22;5059212;28;46987;-75
2022/12/10 18:48:51;;;;;;;;;9.67;9.67;;;;;24.17;34.26;100966.09;5067672;27;45496;-75
2022/12/10 18:51:17;;;;;;;;;8.67;8.67;;;;;24.19;33.96;100961.34;5068902;27;45459;-75
2022/12/10 18:53:44;;;;;;;;;11.00;11.00;;;;;24.22;34.15;100965.59;5052866;28;45506;-75
2022/12/10 18:56:19;;;;;;;;;8.67;8.67;;;;;24.26;34.57;100964.25;5068058;27;45711;-75
2022/12/10 18:58:45;;;;;;;;;8.33;8.33;;;;;24.31;34.01;100969.16;5062511;27;45427;-75
2022/12/10 19:01:13;;;;;;;;;9.67;9.67;;;;;24.37;34.05;100962.22;5055041;27;45506;-75
2022/12/10 19:03:38;;;;;;;;;9.33;9.33;;;;;24.40;34.13;100975.44;5055399;28;45486;-75
2022/12/10 19:06:05;;;;;;;;;8.33;8.33;;;;;24.44;33.92;100969.50;5051806;27;46182;-75
2022/12/10 19:08:30;;;;;;;;;10.00;10.00;;;;;24.45;34.02;100965.75;5051630;27;45767;-74
2022/12/10 19:10:56;;;;;;;;;11.67;10.33;;;;;24.50;33.70;100957.13;5053503;27;45743;-75
2022/12/10 19:13:21;;;;;;;;;16.33;10.33;;;;;24.51;33.82;100961.53;5065853;27;45456;-76
2022/12/10 19:15:47;;;;;;;;;3.67;3.67;;;;;24.51;34.05;100953.41;5067959;27;46665;-77
2022/12/10 19:18:14;;;;;;;;;12.33;10.00;;;;;24.58;33.87;100961.69;5071230;28;45492;-75
2022/12/10 19:20:41;;;;;;;;;12.00;9.33;;;;;24.59;33.88;100956.09;5073384;27;45751;-75
2022/12/10 19:23:06;;;;;;;;;8.33;8.33;;;;;24.60;33.81;100952.38;5075042;27;45592;-74
2022/12/10 19:25:32;;;;;;;;;10.33;9.67;;;;;24.60;33.63;100955.09;5065721;27;46278;-74
2022/12/10 19:27:57;;;;;;;;;8.67;8.67;;;;;24.56;33.63;100944.75;5069750;27;45769;-75
2022/12/10 19:30:25;;;;;;;;;7.33;7.33;;;;;24.60;33.72;100956.94;5068994;27;45605;-74
2022/12/10 19:32:51;;;;;;;;;10.00;10.00;;;;;24.59;33.84;100955.25;5071785;27;45669;-74
2022/12/10 19:35:20;;;;;;;;;9.33;9.33;;;;;24.56;33.71;100959.16;5074069;27;46531;-74
2022/12/10 19:37:47;;;;;;;;;9.00;9.00;;;;;24.58;33.73;100965.28;5067554;27;45460;-74
2022/12/10 19:40:28;;;;;;;;;10.33;9.00;;;;;24.58;33.67;100961.69;5071775;28;45435;-74
2022/12/10 19:42:54;;;;;;;;;10.67;10.67;;;;;24.56;33.74;100959.16;5074688;27;45347;-74
2022/12/10 19:45:20;;;;;;;;;10.00;9.00;;;;;24.59;33.78;100960.69;5081449;27;45513;-74
2022/12/10 19:47:47;;;;;;;;;12.00;11.00;;;;;24.56;33.51;100964.59;5069583;27;45428;-75
2022/12/10 19:50:17;;;;;;;;;11.67;10.00;;;;;24.60;33.43;100965.94;5068952;27;45138;-74
2022/12/10 19:52:46;;;;;;;;;8.00;8.00;;;;;24.61;33.64;100962.19;5077082;27;45799;-74